sensor_id;sensor_type;location;lat;lon;timestamp;temperature;humidity
6520;DHT22;3293;51.690;5.982;2023-10-31T00:00:54;10.70;99.90
6520;DHT22;3293;51.690;5.982;2023-10-31T00:05:54;10.60;99.90
6520;DHT22;3293;51.690;5.982;2023-10-31T00:10:54;10.60;99.90
6520;DHT22;3293;51.690;5.982;2023-10-31T00:15:54;10.50;99.90
6520;DHT22;3293;51.690;5.982;2023-10-31T00:20:54;10.50;99.90
6520;DHT22;3293;51.690;5.982;2023-10-31T00:25:55;10.40;99.90
6520;DHT22;3293;51.690;5.982;2023-10-31T00:30:54;10.40;99.90
6520;DHT22;3293;51.690;5.982;2023-10-31T00:35:55;10.30;99.90
6520;DHT22;3293;51.690;5.982;2023-10-31T00:40:55;10.30;99.90
6520;DHT22;3293;51.690;5.982;2023-10-31T00:45:56;10.20;99.90
6520;DHT22;3293;51.690;5.982;2023-10-31T00:50:56;10.10;99.90
6520;DHT22;3293;51.690;5.982;2023-10-31T00:56:03;10.10;99.90
6520;DHT22;3293;51.690;5.982;2023-10-31T01:01:03;10.00;99.90
6520;DHT22;3293;51.690;5.982;2023-10-31T01:06:04;10.00;99.90
6520;DHT22;3293;51.690;5.982;2023-10-31T01:11:03;10.00;99.90
6520;DHT22;3293;51.690;5.982;2023-10-31T01:16:04;10.00;99.90
6520;DHT22;3293;51.690;5.982;2023-10-31T01:21:04;9.90;99.90
6520;DHT22;3293;51.690;5.982;2023-10-31T01:26:04;10.00;99.90
6520;DHT22;3293;51.690;5.982;2023-10-31T01:31:04;10.00;99.90
6520;DHT22;3293;51.690;5.982;2023-10-31T01:36:05;10.10;99.90
6520;DHT22;3293;51.690;5.982;2023-10-31T01:41:05;10.20;99.90
6520;DHT22;3293;51.690;5.982;2023-10-31T01:46:06;10.30;99.90
6520;DHT22;3293;51.690;5.982;2023-10-31T01:51:07;10.30;99.90
6520;DHT22;3293;51.690;5.982;2023-10-31T01:56:09;10.30;99.90
6520;DHT22;3293;51.690;5.982;2023-10-31T02:01:10;10.30;99.90
6520;DHT22;3293;51.690;5.982;2023-10-31T02:06:11;10.30;99.90
6520;DHT22;3293;51.690;5.982;2023-10-31T02:11:12;10.30;99.90
6520;DHT22;3293;51.690;5.982;2023-10-31T02:16:12;10.30;99.90
6520;DHT22;3293;51.690;5.982;2023-10-31T02:21:12;10.40;99.90
6520;DHT22;3293;51.690;5.982;2023-10-31T02:26:12;10.40;99.90
6520;DHT22;3293;51.690;5.982;2023-10-31T02:31:12;10.30;99.90
6520;DHT22;3293;51.690;5.982;2023-10-31T02:36:12;10.30;99.90
6520;DHT22;3293;51.690;5.982;2023-10-31T02:41:12;10.30;99.90
6520;DHT22;3293;51.690;5.982;2023-10-31T02:46:12;10.30;99.90
6520;DHT22;3293;51.690;5.982;2023-10-31T02:51:14;10.40;99.90
6520;DHT22;3293;51.690;5.982;2023-10-31T02:56:14;10.40;99.90
6520;DHT22;3293;51.690;5.982;2023-10-31T03:01:14;10.40;99.90
6520;DHT22;3293;51.690;5.982;2023-10-31T03:06:14;10.40;99.90
6520;DHT22;3293;51.690;5.982;2023-10-31T03:11:23;10.40;99.90
6520;DHT22;3293;51.690;5.982;2023-10-31T03:16:24;10.50;99.90
6520;DHT22;3293;51.690;5.982;2023-10-31T03:21:24;10.40;99.90
6520;DHT22;3293;51.690;5.982;2023-10-31T03:26:25;10.40;99.90
6520;DHT22;3293;51.690;5.982;2023-10-31T03:31:25;10.50;99.90
6520;DHT22;3293;51.690;5.982;2023-10-31T03:36:26;10.50;99.90
6520;DHT22;3293;51.690;5.982;2023-10-31T03:41:27;10.50;99.90
6520;DHT22;3293;51.690;5.982;2023-10-31T03:46:28;10.50;99.90
6520;DHT22;3293;51.690;5.982;2023-10-31T03:51:29;10.50;99.90
6520;DHT22;3293;51.690;5.982;2023-10-31T03:56:30;10.50;99.90
6520;DHT22;3293;51.690;5.982;2023-10-31T04:01:30;10.50;99.90
6520;DHT22;3293;51.690;5.982;2023-10-31T04:06:30;10.50;99.90
6520;DHT22;3293;51.690;5.982;2023-10-31T04:11:31;10.50;99.90
6520;DHT22;3293;51.690;5.982;2023-10-31T04:16:31;10.40;99.90
6520;DHT22;3293;51.690;5.982;2023-10-31T04:21:32;10.40;99.90
6520;DHT22;3293;51.690;5.982;2023-10-31T04:26:32;10.50;99.90
6520;DHT22;3293;51.690;5.982;2023-10-31T04:31:32;10.50;99.90
6520;DHT22;3293;51.690;5.982;2023-10-31T04:36:32;10.50;99.90
6520;DHT22;3293;51.690;5.982;2023-10-31T04:41:32;10.50;99.90
6520;DHT22;3293;51.690;5.982;2023-10-31T04:46:33;10.50;99.90
6520;DHT22;3293;51.690;5.982;2023-10-31T04:51:37;10.50;99.90
6520;DHT22;3293;51.690;5.982;2023-10-31T04:56:38;10.50;99.90
6520;DHT22;3293;51.690;5.982;2023-10-31T05:01:38;10.50;99.90
6520;DHT22;3293;51.690;5.982;2023-10-31T05:06:39;10.40;99.90
6520;DHT22;3293;51.690;5.982;2023-10-31T05:11:39;10.40;99.90
6520;DHT22;3293;51.690;5.982;2023-10-31T05:16:43;10.40;99.90
6520;DHT22;3293;51.690;5.982;2023-10-31T05:21:43;10.40;99.90
6520;DHT22;3293;51.690;5.982;2023-10-31T05:26:44;10.40;99.90
6520;DHT22;3293;51.690;5.982;2023-10-31T05:31:44;10.40;99.90
6520;DHT22;3293;51.690;5.982;2023-10-31T05:36:44;10.40;99.90
6520;DHT22;3293;51.690;5.982;2023-10-31T05:41:44;10.40;99.90
6520;DHT22;3293;51.690;5.982;2023-10-31T05:46:44;10.50;99.90
6520;DHT22;3293;51.690;5.982;2023-10-31T05:51:44;10.50;99.90
6520;DHT22;3293;51.690;5.982;2023-10-31T05:56:43;10.50;99.90
6520;DHT22;3293;51.690;5.982;2023-10-31T06:01:44;10.50;99.90
6520;DHT22;3293;51.690;5.982;2023-10-31T06:06:44;10.30;99.90
6520;DHT22;3293;51.690;5.982;2023-10-31T06:11:44;10.30;99.90
6520;DHT22;3293;51.690;5.982;2023-10-31T06:16:45;10.30;99.90
6520;DHT22;3293;51.690;5.982;2023-10-31T06:21:45;10.30;99.90
6520;DHT22;3293;51.690;5.982;2023-10-31T06:26:45;10.30;99.90
6520;DHT22;3293;51.690;5.982;2023-10-31T06:31:46;10.30;99.90
6520;DHT22;3293;51.690;5.982;2023-10-31T06:36:45;10.30;99.90
6520;DHT22;3293;51.690;5.982;2023-10-31T06:41:45;10.30;99.90
6520;DHT22;3293;51.690;5.982;2023-10-31T06:46:45;10.30;99.90
6520;DHT22;3293;51.690;5.982;2023-10-31T06:51:45;10.30;99.90
6520;DHT22;3293;51.690;5.982;2023-10-31T06:56:47;10.40;99.90
6520;DHT22;3293;51.690;5.982;2023-10-31T07:01:50;10.40;99.90
6520;DHT22;3293;51.690;5.982;2023-10-31T07:06:52;10.40;99.90
6520;DHT22;3293;51.690;5.982;2023-10-31T07:11:56;10.50;99.90
6520;DHT22;3293;51.690;5.982;2023-10-31T07:16:56;10.50;99.90
6520;DHT22;3293;51.690;5.982;2023-10-31T07:21:57;10.50;99.90
6520;DHT22;3293;51.690;5.982;2023-10-31T07:26:56;10.50;99.90
6520;DHT22;3293;51.690;5.982;2023-10-31T07:31:56;10.50;99.90
6520;DHT22;3293;51.690;5.982;2023-10-31T07:36:56;10.50;99.90
6520;DHT22;3293;51.690;5.982;2023-10-31T07:41:57;10.50;99.90
6520;DHT22;3293;51.690;5.982;2023-10-31T07:46:57;10.60;99.90
6520;DHT22;3293;51.690;5.982;2023-10-31T07:51:57;10.50;99.90
6520;DHT22;3293;51.690;5.982;2023-10-31T07:56:57;10.60;99.90
6520;DHT22;3293;51.690;5.982;2023-10-31T08:01:57;10.60;99.90
6520;DHT22;3293;51.690;5.982;2023-10-31T08:06:58;10.60;99.90
6520;DHT22;3293;51.690;5.982;2023-10-31T08:11:58;10.70;99.90
6520;DHT22;3293;51.690;5.982;2023-10-31T08:16:58;10.80;99.90
6520;DHT22;3293;51.690;5.982;2023-10-31T08:21:58;10.90;99.90
6520;DHT22;3293;51.690;5.982;2023-10-31T08:26:58;10.90;99.90
6520;DHT22;3293;51.690;5.982;2023-10-31T08:31:58;11.00;99.90
6520;DHT22;3293;51.690;5.982;2023-10-31T08:36:58;11.00;99.90
6520;DHT22;3293;51.690;5.982;2023-10-31T08:41:58;11.10;99.90
6520;DHT22;3293;51.690;5.982;2023-10-31T08:46:59;11.20;99.90
6520;DHT22;3293;51.690;5.982;2023-10-31T08:51:59;11.20;99.90
6520;DHT22;3293;51.690;5.982;2023-10-31T08:57:01;11.30;99.90
6520;DHT22;3293;51.690;5.982;2023-10-31T09:02:02;11.40;99.90
6520;DHT22;3293;51.690;5.982;2023-10-31T09:07:02;11.60;99.90
6520;DHT22;3293;51.690;5.982;2023-10-31T09:12:02;11.60;99.90
6520;DHT22;3293;51.690;5.982;2023-10-31T09:17:03;11.70;99.90
6520;DHT22;3293;51.690;5.982;2023-10-31T09:22:03;11.80;99.90
6520;DHT22;3293;51.690;5.982;2023-10-31T09:27:04;12.00;99.90
6520;DHT22;3293;51.690;5.982;2023-10-31T09:32:05;12.10;99.90
6520;DHT22;3293;51.690;5.982;2023-10-31T09:37:06;12.10;99.90
6520;DHT22;3293;51.690;5.982;2023-10-31T09:42:06;12.10;99.90
6520;DHT22;3293;51.690;5.982;2023-10-31T09:47:07;12.20;99.90
6520;DHT22;3293;51.690;5.982;2023-10-31T09:52:08;12.20;99.90
6520;DHT22;3293;51.690;5.982;2023-10-31T09:57:09;12.20;99.90
6520;DHT22;3293;51.690;5.982;2023-10-31T10:02:10;12.30;99.90
6520;DHT22;3293;51.690;5.982;2023-10-31T10:07:16;12.40;99.90
6520;DHT22;3293;51.690;5.982;2023-10-31T10:12:16;12.30;99.90
6520;DHT22;3293;51.690;5.982;2023-10-31T10:17:24;12.30;99.90
6520;DHT22;3293;51.690;5.982;2023-10-31T10:22:28;12.40;99.90
6520;DHT22;3293;51.690;5.982;2023-10-31T10:27:28;12.30;99.90
6520;DHT22;3293;51.690;5.982;2023-10-31T10:32:28;12.20;99.90
6520;DHT22;3293;51.690;5.982;2023-10-31T10:37:28;12.20;99.90
6520;DHT22;3293;51.690;5.982;2023-10-31T10:42:44;12.40;99.90
6520;DHT22;3293;51.690;5.982;2023-10-31T10:47:48;12.60;99.90
6520;DHT22;3293;51.690;5.982;2023-10-31T10:52:54;12.70;99.90
6520;DHT22;3293;51.690;5.982;2023-10-31T10:58:04;12.70;99.90
6520;DHT22;3293;51.690;5.982;2023-10-31T11:03:06;12.80;99.90
6520;DHT22;3293;51.690;5.982;2023-10-31T11:08:08;12.70;99.90
6520;DHT22;3293;51.690;5.982;2023-10-31T11:13:09;12.70;99.90
6520;DHT22;3293;51.690;5.982;2023-10-31T11:18:10;12.60;99.90
6520;DHT22;3293;51.690;5.982;2023-10-31T11:23:11;12.70;99.90
6520;DHT22;3293;51.690;5.982;2023-10-31T11:28:17;12.70;99.90
6520;DHT22;3293;51.690;5.982;2023-10-31T11:33:21;12.60;99.90
6520;DHT22;3293;51.690;5.982;2023-10-31T11:38:31;12.50;99.90
6520;DHT22;3293;51.690;5.982;2023-10-31T11:48:50;12.50;99.90
6520;DHT22;3293;51.690;5.982;2023-10-31T11:53:51;12.40;99.90
6520;DHT22;3293;51.690;5.982;2023-10-31T11:59:02;12.60;99.90
6520;DHT22;3293;51.690;5.982;2023-10-31T12:04:03;12.80;99.90
6520;DHT22;3293;51.690;5.982;2023-10-31T12:09:04;12.90;99.90
6520;DHT22;3293;51.690;5.982;2023-10-31T12:14:05;12.90;99.90
6520;DHT22;3293;51.690;5.982;2023-10-31T12:19:06;12.90;99.90
6520;DHT22;3293;51.690;5.982;2023-10-31T12:24:08;13.00;99.90
6520;DHT22;3293;51.690;5.982;2023-10-31T12:29:18;12.90;99.90
6520;DHT22;3293;51.690;5.982;2023-10-31T12:34:21;12.80;99.90
6520;DHT22;3293;51.690;5.982;2023-10-31T12:39:23;13.20;99.90
6520;DHT22;3293;51.690;5.982;2023-10-31T12:44:26;13.20;99.90
6520;DHT22;3293;51.690;5.982;2023-10-31T12:49:27;13.20;99.90
6520;DHT22;3293;51.690;5.982;2023-10-31T12:54:31;13.10;99.90
6520;DHT22;3293;51.690;5.982;2023-10-31T12:59:32;13.10;99.90
6520;DHT22;3293;51.690;5.982;2023-10-31T13:04:33;13.10;99.90
6520;DHT22;3293;51.690;5.982;2023-10-31T13:09:37;13.20;99.90
6520;DHT22;3293;51.690;5.982;2023-10-31T13:14:40;13.20;99.90
6520;DHT22;3293;51.690;5.982;2023-10-31T13:19:46;13.20;99.90
6520;DHT22;3293;51.690;5.982;2023-10-31T13:24:47;13.20;99.90
6520;DHT22;3293;51.690;5.982;2023-10-31T13:29:47;13.30;99.90
6520;DHT22;3293;51.690;5.982;2023-10-31T13:34:49;13.40;99.90
6520;DHT22;3293;51.690;5.982;2023-10-31T13:45:00;13.10;99.90
6520;DHT22;3293;51.690;5.982;2023-10-31T13:55:37;12.90;99.90
6520;DHT22;3293;51.690;5.982;2023-10-31T14:00:38;13.00;99.90
6520;DHT22;3293;51.690;5.982;2023-10-31T14:05:39;13.10;99.90
6520;DHT22;3293;51.690;5.982;2023-10-31T14:10:40;13.30;99.90
6520;DHT22;3293;51.690;5.982;2023-10-31T14:15:45;13.40;99.90
6520;DHT22;3293;51.690;5.982;2023-10-31T14:20:46;13.50;99.90
6520;DHT22;3293;51.690;5.982;2023-10-31T14:25:58;13.60;99.90
6520;DHT22;3293;51.690;5.982;2023-10-31T14:30:59;13.50;99.90
6520;DHT22;3293;51.690;5.982;2023-10-31T14:35:59;13.20;99.90
6520;DHT22;3293;51.690;5.982;2023-10-31T14:40:59;13.10;99.90
6520;DHT22;3293;51.690;5.982;2023-10-31T14:46:00;13.00;99.90
6520;DHT22;3293;51.690;5.982;2023-10-31T14:51:01;12.90;99.90
6520;DHT22;3293;51.690;5.982;2023-10-31T14:56:02;12.80;99.90
6520;DHT22;3293;51.690;5.982;2023-10-31T15:01:03;12.80;99.90
6520;DHT22;3293;51.690;5.982;2023-10-31T15:06:04;12.70;99.90
6520;DHT22;3293;51.690;5.982;2023-10-31T15:11:04;12.70;99.90
6520;DHT22;3293;51.690;5.982;2023-10-31T15:16:04;12.70;99.90
6520;DHT22;3293;51.690;5.982;2023-10-31T15:21:04;12.70;99.90
6520;DHT22;3293;51.690;5.982;2023-10-31T15:26:05;12.60;99.90
6520;DHT22;3293;51.690;5.982;2023-10-31T15:31:05;12.60;99.90
6520;DHT22;3293;51.690;5.982;2023-10-31T15:36:09;12.50;99.90
6520;DHT22;3293;51.690;5.982;2023-10-31T15:41:10;12.40;99.90
6520;DHT22;3293;51.690;5.982;2023-10-31T15:46:12;12.30;99.90
6520;DHT22;3293;51.690;5.982;2023-10-31T15:51:13;12.20;99.90
6520;DHT22;3293;51.690;5.982;2023-10-31T15:56:13;12.10;99.90
6520;DHT22;3293;51.690;5.982;2023-10-31T16:01:15;12.00;99.90
6520;DHT22;3293;51.690;5.982;2023-10-31T16:06:15;12.00;99.90
6520;DHT22;3293;51.690;5.982;2023-10-31T16:11:16;11.90;99.90
6520;DHT22;3293;51.690;5.982;2023-10-31T16:16:16;11.80;99.90
6520;DHT22;3293;51.690;5.982;2023-10-31T16:21:17;11.70;99.90
6520;DHT22;3293;51.690;5.982;2023-10-31T16:26:19;11.60;99.90
6520;DHT22;3293;51.690;5.982;2023-10-31T16:31:19;11.60;99.90
6520;DHT22;3293;51.690;5.982;2023-10-31T16:36:20;11.60;99.90
6520;DHT22;3293;51.690;5.982;2023-10-31T16:41:21;11.60;99.90
6520;DHT22;3293;51.690;5.982;2023-10-31T16:46:21;11.60;99.90
6520;DHT22;3293;51.690;5.982;2023-10-31T16:51:21;11.60;99.90
6520;DHT22;3293;51.690;5.982;2023-10-31T16:56:22;11.60;99.90
6520;DHT22;3293;51.690;5.982;2023-10-31T17:01:22;11.50;99.90
6520;DHT22;3293;51.690;5.982;2023-10-31T17:06:22;11.50;99.90
6520;DHT22;3293;51.690;5.982;2023-10-31T17:11:22;11.50;99.90
6520;DHT22;3293;51.690;5.982;2023-10-31T17:16:23;11.40;99.90
6520;DHT22;3293;51.690;5.982;2023-10-31T17:21:24;11.40;99.90
6520;DHT22;3293;51.690;5.982;2023-10-31T17:26:24;11.40;99.90
6520;DHT22;3293;51.690;5.982;2023-10-31T17:31:23;11.40;99.90
6520;DHT22;3293;51.690;5.982;2023-10-31T17:36:23;11.50;99.90
6520;DHT22;3293;51.690;5.982;2023-10-31T17:41:23;11.40;99.90
6520;DHT22;3293;51.690;5.982;2023-10-31T17:46:23;11.40;99.90
6520;DHT22;3293;51.690;5.982;2023-10-31T17:51:23;11.40;99.90
6520;DHT22;3293;51.690;5.982;2023-10-31T17:56:23;11.50;99.90
6520;DHT22;3293;51.690;5.982;2023-10-31T18:01:23;11.50;99.90
6520;DHT22;3293;51.690;5.982;2023-10-31T18:06:23;11.50;99.90
6520;DHT22;3293;51.690;5.982;2023-10-31T18:11:23;11.50;99.90
6520;DHT22;3293;51.690;5.982;2023-10-31T18:16:24;11.50;99.90
6520;DHT22;3293;51.690;5.982;2023-10-31T18:21:24;11.50;99.90
6520;DHT22;3293;51.690;5.982;2023-10-31T18:26:24;11.50;99.90
6520;DHT22;3293;51.690;5.982;2023-10-31T18:31:24;11.40;99.90
6520;DHT22;3293;51.690;5.982;2023-10-31T18:36:24;11.40;99.90
6520;DHT22;3293;51.690;5.982;2023-10-31T18:41:25;11.40;99.90
6520;DHT22;3293;51.690;5.982;2023-10-31T18:46:25;11.40;99.90
6520;DHT22;3293;51.690;5.982;2023-10-31T18:51:25;11.40;99.90
6520;DHT22;3293;51.690;5.982;2023-10-31T18:56:25;11.40;99.90
6520;DHT22;3293;51.690;5.982;2023-10-31T19:01:25;11.30;99.90
6520;DHT22;3293;51.690;5.982;2023-10-31T19:06:26;11.40;99.90
6520;DHT22;3293;51.690;5.982;2023-10-31T19:11:25;11.40;99.90
6520;DHT22;3293;51.690;5.982;2023-10-31T19:16:25;11.40;99.90
6520;DHT22;3293;51.690;5.982;2023-10-31T19:21:26;11.40;99.90
6520;DHT22;3293;51.690;5.982;2023-10-31T19:26:26;11.40;99.90
6520;DHT22;3293;51.690;5.982;2023-10-31T19:31:26;11.50;99.90
6520;DHT22;3293;51.690;5.982;2023-10-31T19:36:26;11.40;99.90
6520;DHT22;3293;51.690;5.982;2023-10-31T19:41:30;11.40;99.90
6520;DHT22;3293;51.690;5.982;2023-10-31T19:46:30;11.20;99.90
6520;DHT22;3293;51.690;5.982;2023-10-31T19:51:30;11.10;99.90
6520;DHT22;3293;51.690;5.982;2023-10-31T19:56:30;11.00;99.90
6520;DHT22;3293;51.690;5.982;2023-10-31T20:01:30;11.00;99.90
6520;DHT22;3293;51.690;5.982;2023-10-31T20:06:30;11.10;99.90
6520;DHT22;3293;51.690;5.982;2023-10-31T20:11:31;11.20;99.90
6520;DHT22;3293;51.690;5.982;2023-10-31T20:16:33;11.20;99.90
6520;DHT22;3293;51.690;5.982;2023-10-31T20:21:33;11.30;99.90
6520;DHT22;3293;51.690;5.982;2023-10-31T20:26:34;11.30;99.90
6520;DHT22;3293;51.690;5.982;2023-10-31T20:31:34;11.30;99.90
6520;DHT22;3293;51.690;5.982;2023-10-31T20:36:35;11.20;99.90
6520;DHT22;3293;51.690;5.982;2023-10-31T20:41:37;11.30;99.90
6520;DHT22;3293;51.690;5.982;2023-10-31T20:46:37;11.30;99.90
6520;DHT22;3293;51.690;5.982;2023-10-31T20:51:37;11.40;99.90
6520;DHT22;3293;51.690;5.982;2023-10-31T20:56:38;11.40;99.90
6520;DHT22;3293;51.690;5.982;2023-10-31T21:01:38;11.50;99.90
6520;DHT22;3293;51.690;5.982;2023-10-31T21:06:38;11.50;99.90
6520;DHT22;3293;51.690;5.982;2023-10-31T21:11:38;11.50;99.90
6520;DHT22;3293;51.690;5.982;2023-10-31T21:16:39;11.50;99.90
6520;DHT22;3293;51.690;5.982;2023-10-31T21:21:39;11.50;99.90
6520;DHT22;3293;51.690;5.982;2023-10-31T21:26:39;11.50;99.90
6520;DHT22;3293;51.690;5.982;2023-10-31T21:31:40;11.50;99.90
6520;DHT22;3293;51.690;5.982;2023-10-31T21:36:41;11.50;99.90
6520;DHT22;3293;51.690;5.982;2023-10-31T21:41:45;11.50;99.90
6520;DHT22;3293;51.690;5.982;2023-10-31T21:46:46;11.60;99.90
6520;DHT22;3293;51.690;5.982;2023-10-31T21:51:48;11.60;99.90
6520;DHT22;3293;51.690;5.982;2023-10-31T21:56:49;11.60;99.90
6520;DHT22;3293;51.690;5.982;2023-10-31T22:01:50;11.60;99.90
6520;DHT22;3293;51.690;5.982;2023-10-31T22:06:51;11.50;99.90
6520;DHT22;3293;51.690;5.982;2023-10-31T22:11:52;11.40;99.90
6520;DHT22;3293;51.690;5.982;2023-10-31T22:16:53;11.30;99.90
6520;DHT22;3293;51.690;5.982;2023-10-31T22:21:54;11.30;99.90
6520;DHT22;3293;51.690;5.982;2023-10-31T22:26:55;11.20;99.90
6520;DHT22;3293;51.690;5.982;2023-10-31T22:31:56;11.20;99.90
6520;DHT22;3293;51.690;5.982;2023-10-31T22:36:56;11.20;99.90
6520;DHT22;3293;51.690;5.982;2023-10-31T22:41:56;11.20;99.90
6520;DHT22;3293;51.690;5.982;2023-10-31T22:46:56;11.20;99.90
6520;DHT22;3293;51.690;5.982;2023-10-31T22:51:57;11.20;99.90
6520;DHT22;3293;51.690;5.982;2023-10-31T22:56:57;11.30;99.90
6520;DHT22;3293;51.690;5.982;2023-10-31T23:02:08;11.30;99.90
6520;DHT22;3293;51.690;5.982;2023-10-31T23:07:08;11.40;99.90
6520;DHT22;3293;51.690;5.982;2023-10-31T23:12:08;11.40;99.90
6520;DHT22;3293;51.690;5.982;2023-10-31T23:17:08;11.40;99.90
6520;DHT22;3293;51.690;5.982;2023-10-31T23:22:08;11.40;99.90
6520;DHT22;3293;51.690;5.982;2023-10-31T23:27:08;11.40;99.90
6520;DHT22;3293;51.690;5.982;2023-10-31T23:32:08;11.40;99.90
6520;DHT22;3293;51.690;5.982;2023-10-31T23:37:08;11.40;99.90
6520;DHT22;3293;51.690;5.982;2023-10-31T23:42:08;11.40;99.90
6520;DHT22;3293;51.690;5.982;2023-10-31T23:47:09;11.40;99.90
6520;DHT22;3293;51.690;5.982;2023-10-31T23:52:09;11.50;99.90
6520;DHT22;3293;51.690;5.982;2023-10-31T23:57:09;11.50;99.90
